createdAt,value
2019-01-22T00:04:34.485Z,21.8
2019-01-22T00:14:33.694Z,21.8
2019-01-22T00:24:32.902Z,21.8
2019-01-22T00:34:32.107Z,22
2019-01-22T00:44:31.315Z,21.9
2019-01-22T00:54:30.522Z,21.9
2019-01-22T01:04:29.730Z,21.8
2019-01-22T01:14:28.939Z,21.9
2019-01-22T01:24:28.148Z,22
2019-01-22T01:34:27.352Z,22.1
2019-01-22T01:44:26.562Z,22
2019-01-22T01:54:25.769Z,21.9
2019-01-22T02:04:25.544Z,21.9
2019-01-22T02:14:24.181Z,22.1
2019-01-22T02:24:23.390Z,22
2019-01-22T02:34:22.595Z,21.9
2019-01-22T02:44:21.802Z,21.8
2019-01-22T02:54:21.012Z,22.1
2019-01-22T03:04:20.218Z,22
2019-01-22T03:14:19.424Z,22.1
2019-01-22T03:24:18.631Z,22.1
2019-01-22T03:34:17.838Z,22.1
2019-01-22T03:44:17.044Z,22.1
2019-01-22T03:54:16.251Z,21.9
2019-01-22T04:04:15.469Z,21.8
2019-01-22T04:14:14.666Z,21.8
2019-01-22T04:24:13.872Z,22
2019-01-22T04:34:13.086Z,22
2019-01-22T04:44:12.297Z,21.9
2019-01-22T04:54:11.509Z,22
2019-01-22T05:04:10.720Z,21.9
2019-01-22T05:14:09.931Z,22
2019-01-22T05:24:09.145Z,21.9
2019-01-22T05:34:08.367Z,22.2
2019-01-22T05:44:07.575Z,22.1
2019-01-22T05:54:06.787Z,22.4
2019-01-22T06:04:05.999Z,22.5
2019-01-22T06:14:05.215Z,22.6
2019-01-22T06:24:04.421Z,22.3
2019-01-22T06:34:03.637Z,22.5
2019-01-22T06:44:02.836Z,22.4
2019-01-22T06:54:02.046Z,22.1
2019-01-22T07:04:01.251Z,22.1
2019-01-22T07:14:00.457Z,22.4
2019-01-22T07:23:59.664Z,22.1
2019-01-22T07:33:58.870Z,22.3
2019-01-22T07:43:58.080Z,22.4
2019-01-22T07:53:57.286Z,22.2
2019-01-22T08:03:56.493Z,22
2019-01-22T08:13:55.698Z,22
2019-01-22T08:23:54.903Z,22.4
2019-01-22T08:33:54.110Z,22.2
2019-01-22T08:43:53.316Z,22.1
2019-01-22T08:53:52.521Z,22.5
2019-01-22T09:03:51.725Z,22.3
2019-01-22T09:13:50.932Z,22.6
2019-01-22T09:23:50.138Z,22.3
2019-01-22T09:33:49.669Z,22.6
2019-01-22T09:43:48.548Z,22.6
2019-01-22T09:53:47.757Z,22.2
2019-01-22T10:03:46.963Z,22
2019-01-22T10:13:48.122Z,22.1
2019-01-22T10:23:46.786Z,22.4
2019-01-22T10:33:45.716Z,22.4
2019-01-22T10:43:43.781Z,22.2
2019-01-22T10:53:42.987Z,22.5
2019-01-22T11:03:42.192Z,22.4
2019-01-22T11:13:41.398Z,22.2
2019-01-22T11:23:40.603Z,22.4
2019-01-22T11:33:39.807Z,22.4
2019-01-22T11:43:39.013Z,22.4
2019-01-22T11:53:38.218Z,22.4
2019-01-22T12:03:37.422Z,22.6
2019-01-22T12:13:36.626Z,22.5
2019-01-22T12:23:35.833Z,22.3
2019-01-22T12:33:35.037Z,22.4
2019-01-22T12:43:34.241Z,22.2
2019-01-22T12:53:33.445Z,22.1
2019-01-22T13:03:32.650Z,22.3
2019-01-22T13:13:31.854Z,22.4
2019-01-22T13:23:31.060Z,22.3
2019-01-22T13:33:30.268Z,22.1
2019-01-22T13:43:29.478Z,21.9
2019-01-22T13:53:28.684Z,21.9
2019-01-22T14:03:27.903Z,22.2
2019-01-22T14:13:27.106Z,22.1
2019-01-22T14:23:26.317Z,21.9
2019-01-22T14:33:25.526Z,21.9
2019-01-22T14:43:24.772Z,22.3
2019-01-22T14:53:23.955Z,22.1
2019-01-22T15:03:23.158Z,22
2019-01-22T15:13:22.368Z,21.9
2019-01-22T15:23:21.579Z,21.9
2019-01-22T15:33:20.793Z,22
2019-01-22T15:43:20.008Z,21.9
2019-01-22T15:53:19.214Z,21.8
2019-01-22T16:03:18.422Z,22
2019-01-22T16:13:17.635Z,22
2019-01-22T16:23:16.897Z,22
2019-01-22T16:33:16.060Z,22.4
2019-01-22T16:43:15.272Z,22.3
2019-01-22T16:53:14.485Z,22.2
2019-01-22T17:03:13.696Z,22.3
2019-01-22T17:13:12.902Z,22.2
2019-01-22T17:23:16.440Z,22.1
2019-01-22T17:33:11.329Z,21.9
2019-01-22T17:43:10.540Z,21.8
2019-01-22T17:53:09.781Z,21.8
2019-01-22T18:03:08.962Z,21.8
2019-01-22T18:13:08.350Z,22.1
2019-01-22T18:23:07.558Z,22.1
2019-01-22T18:33:06.587Z,22
2019-01-22T18:43:05.822Z,21.9
2019-01-22T18:53:05.104Z,21.8
2019-01-22T19:03:04.231Z,21.9
2019-01-22T19:13:03.441Z,22.1
2019-01-22T19:23:02.697Z,22.1
2019-01-22T19:33:01.881Z,22.1
2019-01-22T19:43:01.106Z,22.2
2019-01-22T19:53:00.326Z,22.3
2019-01-22T20:02:59.574Z,22.2
2019-01-22T20:12:58.760Z,22.2
2019-01-22T20:22:57.978Z,22.1
2019-01-22T20:32:57.192Z,22.5
2019-01-22T20:42:56.459Z,22.4
2019-01-22T20:52:55.626Z,22.4
2019-01-22T21:02:54.847Z,22.3
2019-01-22T21:12:54.056Z,22.3
2019-01-22T21:22:53.270Z,22.3
2019-01-22T21:32:52.534Z,22.2
2019-01-22T21:42:51.696Z,22.1
2019-01-22T21:52:50.907Z,22
2019-01-22T22:02:50.122Z,22
2019-01-22T22:12:49.333Z,22.2
2019-01-22T22:22:48.545Z,22.1
2019-01-22T22:32:47.757Z,22.1
2019-01-22T22:42:46.967Z,22
2019-01-22T22:52:46.178Z,21.9
2019-01-22T23:02:45.387Z,21.9
2019-01-22T23:12:44.599Z,22.1
2019-01-22T23:22:43.810Z,22.1
2019-01-22T23:32:43.019Z,22
2019-01-22T23:42:42.226Z,22
2019-01-22T23:52:41.437Z,22.1
